Time;durP1;ratioP1;P1;durP2;ratioP2;P2;SDS_P1;SDS_P2;PMS_P1;PMS_P2;Temp;Humidity;BMP_temperature;BMP_pressure;BME280_temperature;BME280_humidity;BME280_pressure;Samples;Min_cycle;Max_cycle;Signal;HPM_P1;HPM_P2
2022/11/20 00:00:51;;;;;;;8.60;5.90;;;1.00;99.90;;;;;;5003426;28;20080;-75
2022/11/20 00:03:17;;;;;;;8.20;5.53;;;1.10;99.90;;;;;;5002661;28;20552;-81
2022/11/20 00:05:43;;;;;;;8.57;5.73;;;1.10;99.90;;;;;;5014843;28;20504;-76
2022/11/20 00:08:09;;;;;;;9.47;5.87;;;1.10;99.90;;;;;;5023000;28;20057;-75
2022/11/20 00:10:39;;;;;;;8.67;5.27;;;1.10;99.90;;;;;;5008481;28;20489;-74
2022/11/20 00:13:06;;;;;;;6.73;4.43;;;1.10;99.90;;;;;;5003043;28;20045;-76
2022/11/20 00:15:32;;;;;;;8.30;7.00;;;1.10;99.90;;;;;;5002211;28;20042;-75
2022/11/20 00:17:57;;;;;;;11.33;6.87;;;1.10;99.90;;;;;;5004935;28;20048;-78
2022/11/20 00:20:23;;;;;;;7.90;6.17;;;1.10;99.90;;;;;;5012353;28;20431;-83
2022/11/20 00:22:49;;;;;;;8.90;5.77;;;1.10;99.90;;;;;;5025175;28;20045;-73
2022/11/20 00:25:15;;;;;;;10.23;6.10;;;1.10;99.90;;;;;;5025167;28;20051;-82
2022/11/20 00:27:41;;;;;;;8.60;5.57;;;1.10;99.90;;;;;;5006635;28;20046;-82
2022/11/20 00:30:07;;;;;;;7.30;5.63;;;1.10;99.90;;;;;;5018983;28;20045;-78
2022/11/20 00:32:32;;;;;;;10.33;6.23;;;1.10;99.90;;;;;;5007813;28;20052;-75
2022/11/20 00:34:58;;;;;;;11.63;7.17;;;1.10;99.90;;;;;;5006647;28;20042;-77
2022/11/20 00:37:23;;;;;;;10.87;6.77;;;1.10;99.90;;;;;;5011236;28;20045;-75
2022/11/20 00:39:49;;;;;;;6.63;4.80;;;1.10;99.90;;;;;;5026168;28;20049;-80
2022/11/20 00:42:14;;;;;;;8.07;5.37;;;1.00;99.90;;;;;;5026527;28;20053;-83
2022/11/20 00:44:40;;;;;;;11.83;6.80;;;1.00;99.90;;;;;;5018213;28;20104;-78
2022/11/20 00:47:05;;;;;;;9.67;4.70;;;1.00;99.90;;;;;;5012359;28;20113;-78
2022/11/20 00:49:31;;;;;;;7.37;6.13;;;1.00;99.90;;;;;;5006780;28;20041;-77
2022/11/20 00:51:57;;;;;;;16.00;7.43;;;1.00;99.90;;;;;;5023478;28;20034;-73
2022/11/20 00:54:22;;;;;;;8.77;4.80;;;0.90;99.90;;;;;;5026320;28;20049;-81
2022/11/20 00:56:48;;;;;;;7.53;5.60;;;1.00;99.90;;;;;;5026600;28;20053;-82
2022/11/20 00:59:13;;;;;;;9.80;5.53;;;1.00;99.90;;;;;;5009655;28;20054;-82
2022/11/20 01:01:39;;;;;;;6.97;6.27;;;1.00;99.90;;;;;;5005575;28;20041;-82
2022/11/20 01:04:05;;;;;;;13.93;5.67;;;1.00;99.90;;;;;;5006727;28;20073;-77
2022/11/20 01:06:34;;;;;;;9.17;5.53;;;1.00;99.90;;;;;;5005116;28;20049;-75
2022/11/20 01:09:02;;;;;;;8.67;6.60;;;1.00;99.90;;;;;;5021989;28;20496;-75
2022/11/20 01:11:37;;;;;;;9.97;6.70;;;1.00;99.90;;;;;;5026172;28;20049;-76
2022/11/20 01:14:04;;;;;;;6.37;5.70;;;1.10;99.90;;;;;;5025519;28;20072;-77
2022/11/20 01:16:36;;;;;;;6.97;6.23;;;1.10;99.90;;;;;;5025311;28;20092;-77
2022/11/20 01:19:05;;;;;;;9.77;5.97;;;1.10;99.90;;;;;;5008446;28;20396;-82
2022/11/20 01:21:36;;;;;;;10.33;6.30;;;1.10;99.90;;;;;;5006161;28;20049;-80
2022/11/20 01:24:03;;;;;;;10.10;5.45;;;1.10;99.90;;;;;;5007258;28;20505;-76
2022/11/20 01:26:31;;;;;;;7.60;5.13;;;1.10;99.90;;;;;;5014013;28;20045;-72
2022/11/20 01:28:58;;;;;;;9.77;7.17;;;1.10;99.90;;;;;;5005707;28;20077;-75
2022/11/20 01:31:35;;;;;;;6.60;4.70;;;1.10;99.90;;;;;;5005022;28;20045;-76
2022/11/20 01:34:07;;;;;;;7.77;5.90;;;1.10;99.90;;;;;;5005622;28;20042;-83
2022/11/20 01:36:35;;;;;;;11.18;5.80;;;1.10;99.90;;;;;;5005874;28;20038;-81
2022/11/20 01:39:04;;;;;;;10.90;6.80;;;1.10;99.90;;;;;;5005838;28;20081;-82
2022/11/20 01:44:20;;;;;;;9.73;6.70;;;1.10;99.90;;;;;;5006533;28;20121;-74
2022/11/20 01:47:07;;;;;;;10.20;5.73;;;1.10;99.90;;;;;;5004852;28;20049;-77
2022/11/20 01:49:39;;;;;;;5.77;5.30;;;1.10;99.90;;;;;;4985656;28;20734;-77
2022/11/20 01:52:12;;;;;;;6.20;5.18;;;1.10;99.90;;;;;;4985654;28;20038;-82
2022/11/20 01:54:47;;;;;;;5.40;4.50;;;1.10;99.90;;;;;;4984584;28;20050;-82
2022/11/20 01:57:15;;;;;;;7.73;5.83;;;1.10;99.90;;;;;;4985655;28;20121;-75
2022/11/20 01:59:47;;;;;;;6.07;5.43;;;1.00;99.90;;;;;;4985996;28;20100;-75
2022/11/20 02:02:13;;;;;;;;;;;1.00;99.90;;;;;;4985203;28;20080;-82
2022/11/20 02:04:39;;;;;;;6.20;4.53;;;1.00;99.90;;;;;;4984755;28;19969;-78
2022/11/20 02:07:05;;;;;;;8.70;7.13;;;1.00;99.90;;;;;;4988389;28;20069;-75
2022/11/20 02:09:31;;;;;;;18.93;8.23;;;1.00;99.90;;;;;;5005115;28;20058;-71
2022/11/20 02:14:25;;;;;;;9.27;6.00;;;1.00;99.90;;;;;;5003023;28;20057;-77
2022/11/20 02:16:51;;;;;;;9.07;6.20;;;1.00;99.90;;;;;;5036341;28;20456;-82
2022/11/20 02:19:24;;;;;;;9.77;5.53;;;1.00;99.90;;;;;;5005524;28;20408;-82
2022/11/20 02:22:05;;;;;;;16.63;5.93;;;1.00;99.90;;;;;;5004751;28;20184;-74
2022/11/20 02:24:31;;;;;;;8.77;6.77;;;1.00;99.90;;;;;;5003840;28;20057;-82
2022/11/20 02:27:04;;;;;;;8.07;6.00;;;1.00;99.90;;;;;;5003650;28;20488;-77
2022/11/20 02:29:35;;;;;;;11.90;5.63;;;1.00;99.90;;;;;;5005011;28;20419;-72
2022/11/20 02:32:02;;;;;;;9.50;5.80;;;1.00;99.90;;;;;;5002788;28;20089;-73
2022/11/20 02:34:28;;;;;;;9.83;5.87;;;1.00;99.90;;;;;;5004767;28;20128;-76
2022/11/20 02:36:55;;;;;;;9.37;6.60;;;1.00;99.90;;;;;;5003928;28;20121;-77
2022/11/20 02:39:23;;;;;;;12.47;7.97;;;1.00;99.90;;;;;;5004665;28;20476;-75
2022/11/20 02:41:48;;;;;;;7.77;6.00;;;1.00;99.90;;;;;;5003324;28;20053;-72
2022/11/20 02:44:14;;;;;;;13.90;8.20;;;1.00;99.90;;;;;;5005319;28;20034;-82
2022/11/20 02:46:39;;;;;;;7.07;6.47;;;1.00;99.90;;;;;;5003624;28;20091;-76
2022/11/20 02:49:05;;;;;;;8.33;7.40;;;1.10;99.90;;;;;;5004429;28;20049;-78
2022/11/20 02:51:32;;;;;;;9.43;6.63;;;1.10;99.90;;;;;;5004778;28;20503;-81
2022/11/20 02:53:57;;;;;;;7.33;5.83;;;1.10;99.90;;;;;;5004594;28;20142;-79
2022/11/20 02:56:23;;;;;;;7.10;5.43;;;1.00;99.90;;;;;;5004727;28;20088;-75
2022/11/20 02:58:49;;;;;;;9.57;7.47;;;1.10;99.90;;;;;;5003189;28;20123;-79
2022/11/20 03:01:15;;;;;;;10.70;6.77;;;1.10;99.90;;;;;;5003950;28;20089;-79
2022/11/20 03:03:40;;;;;;;9.00;6.60;;;1.10;99.90;;;;;;5004252;28;20034;-84
2022/11/20 03:06:06;;;;;;;8.27;7.47;;;1.10;99.90;;;;;;5004228;28;20109;-77
2022/11/20 03:08:32;;;;;;;12.10;7.30;;;1.10;99.90;;;;;;5002852;28;20041;-83
2022/11/20 03:11:02;;;;;;;12.10;6.20;;;1.10;99.90;;;;;;5004071;28;20205;-82
2022/11/20 03:13:28;;;;;;;9.37;7.17;;;1.10;99.90;;;;;;5003599;28;20148;-84
2022/11/20 03:15:53;;;;;;;9.37;7.90;;;1.10;99.90;;;;;;5002842;28;20750;-80
2022/11/20 03:18:19;;;;;;;9.23;5.87;;;1.10;99.90;;;;;;5004159;28;20045;-77
2022/11/20 03:20:44;;;;;;;11.03;5.77;;;1.10;99.90;;;;;;5004698;28;20476;-81
2022/11/20 03:23:10;;;;;;;12.27;7.63;;;1.10;99.90;;;;;;5003721;28;20042;-77
2022/11/20 03:25:35;;;;;;;15.30;6.17;;;1.10;99.90;;;;;;5002824;28;20053;-83
2022/11/20 03:28:01;;;;;;;9.17;7.60;;;1.10;99.90;;;;;;5003643;28;20034;-83
2022/11/20 03:30:26;;;;;;;8.93;6.90;;;1.10;99.90;;;;;;5003117;28;20559;-83
2022/11/20 03:32:53;;;;;;;7.23;6.50;;;1.20;99.90;;;;;;5002350;28;20061;-82
2022/11/20 03:35:19;;;;;;;14.13;6.37;;;1.20;99.90;;;;;;5003983;28;20093;-74
2022/11/20 03:37:45;;;;;;;8.00;6.43;;;1.20;99.90;;;;;;5004090;28;20426;-76
2022/11/20 03:40:11;;;;;;;14.43;8.27;;;1.10;99.90;;;;;;5002341;28;20041;-77
2022/11/20 03:42:46;;;;;;;10.47;6.97;;;1.20;99.90;;;;;;5003777;28;20042;-80
2022/11/20 03:45:13;;;;;;;8.63;5.63;;;1.10;99.90;;;;;;5032782;28;20030;-83
2022/11/20 03:47:39;;;;;;;7.23;5.83;;;1.10;99.90;;;;;;5002998;28;20900;-81
2022/11/20 03:50:05;;;;;;;7.47;5.07;;;1.10;99.90;;;;;;5003544;28;20038;-77
2022/11/20 03:52:30;;;;;;;9.43;4.87;;;1.10;99.90;;;;;;5005520;28;20033;-79
2022/11/20 03:54:56;;;;;;;8.60;7.13;;;1.00;99.90;;;;;;5007703;28;20056;-81
2022/11/20 03:57:22;;;;;;;13.50;6.30;;;1.10;99.90;;;;;;5007601;28;20034;-83
2022/11/20 03:59:47;;;;;;;10.60;6.20;;;1.00;99.90;;;;;;5006811;28;20133;-76
2022/11/20 04:02:13;;;;;;;6.87;4.57;;;1.00;99.90;;;;;;5004931;28;20045;-82
2022/11/20 04:04:38;;;;;;;12.03;5.00;;;1.00;99.90;;;;;;5006005;28;20054;-80
2022/11/20 04:07:04;;;;;;;10.47;5.13;;;0.90;99.90;;;;;;5007450;28;20624;-77
2022/11/20 04:09:29;;;;;;;10.47;6.77;;;0.90;99.90;;;;;;5007724;28;20038;-74
2022/11/20 04:11:55;;;;;;;9.60;6.77;;;0.90;99.90;;;;;;5038752;28;20144;-78
2022/11/20 04:14:20;;;;;;;8.37;6.77;;;0.90;99.90;;;;;;5005872;28;20046;-83
2022/11/20 04:16:46;;;;;;;5.83;4.67;;;0.90;99.90;;;;;;5006622;28;20045;-83
2022/11/20 04:19:15;;;;;;;8.00;5.23;;;0.90;99.90;;;;;;5007071;28;20126;-74
2022/11/20 04:21:42;;;;;;;12.17;5.57;;;0.90;99.90;;;;;;5007490;28;20096;-83
2022/11/20 04:24:07;;;;;;;6.47;4.90;;;0.90;99.90;;;;;;5006768;28;20048;-81
2022/11/20 04:26:33;;;;;;;15.17;6.57;;;0.80;99.90;;;;;;4994662;28;20440;-79
2022/11/20 04:29:01;;;;;;;9.80;6.40;;;0.80;99.90;;;;;;4985995;28;20104;-76
2022/11/20 04:31:29;;;;;;;7.87;5.60;;;0.70;99.90;;;;;;4985620;28;20054;-80
2022/11/20 04:33:58;;;;;;;9.93;5.60;;;0.70;99.90;;;;;;4987325;28;20077;-76
2022/11/20 04:36:26;;;;;;;9.50;6.23;;;0.70;99.90;;;;;;4993924;28;20033;-79
2022/11/20 04:38:53;;;;;;;8.57;6.00;;;0.60;99.90;;;;;;5006784;28;20143;-78
2022/11/20 04:41:20;;;;;;;5.90;5.17;;;0.60;99.90;;;;;;5006965;28;20042;-74
2022/11/20 04:43:48;;;;;;;5.17;4.53;;;0.60;99.90;;;;;;5007099;28;20544;-77
2022/11/20 04:46:14;;;;;;;8.07;5.70;;;0.60;99.90;;;;;;5005537;28;20042;-76
2022/11/20 04:48:40;;;;;;;6.23;5.47;;;0.60;99.90;;;;;;5005516;28;20408;-75
2022/11/20 04:51:06;;;;;;;10.13;6.27;;;0.50;99.90;;;;;;5006777;28;20048;-83
2022/11/20 04:53:32;;;;;;;6.67;5.60;;;0.50;99.90;;;;;;5006188;28;20054;-82
2022/11/20 04:56:03;;;;;;;7.33;5.80;;;0.60;99.90;;;;;;5005115;28;20061;-81
2022/11/20 04:58:28;;;;;;;8.80;5.40;;;0.60;99.90;;;;;;5005003;28;20392;-82
2022/11/20 05:01:04;;;;;;;6.70;4.67;;;0.60;99.90;;;;;;5003959;28;20104;-83
2022/11/20 05:03:30;;;;;;;12.37;5.47;;;0.60;99.90;;;;;;5004610;28;20125;-76
2022/11/20 05:05:56;;;;;;;6.23;5.63;;;0.60;99.90;;;;;;5006182;28;20081;-78
2022/11/20 05:08:22;;;;;;;7.00;5.07;;;0.60;99.90;;;;;;5006424;28;20080;-80
2022/11/20 05:10:47;;;;;;;9.57;6.00;;;0.50;99.90;;;;;;5005454;28;20453;-82
2022/11/20 05:13:13;;;;;;;7.17;4.60;;;0.50;99.90;;;;;;5004403;28;20103;-82
2022/11/20 05:15:39;;;;;;;6.17;4.77;;;0.50;99.90;;;;;;5005685;28;20506;-82
2022/11/20 05:18:04;;;;;;;8.50;5.07;;;0.50;99.90;;;;;;5005952;28;20034;-78
2022/11/20 05:20:30;;;;;;;6.10;4.90;;;0.50;99.90;;;;;;5005079;28;20034;-73
2022/11/20 05:22:58;;;;;;;9.20;5.50;;;0.50;99.90;;;;;;5006283;28;20516;-78
2022/11/20 05:25:25;;;;;;;7.70;4.47;;;0.40;99.90;;;;;;5006119;28;20045;-79
2022/11/20 05:27:50;;;;;;;8.27;6.27;;;0.40;99.90;;;;;;5005105;28;20046;-80
2022/11/20 05:30:16;;;;;;;7.80;6.43;;;0.40;99.90;;;;;;5005598;28;20048;-82
2022/11/20 05:32:41;;;;;;;7.03;5.07;;;0.30;99.90;;;;;;5005979;28;20034;-82
2022/11/20 05:35:07;;;;;;;4.43;4.10;;;0.30;99.90;;;;;;5005682;28;20058;-79
2022/11/20 05:37:33;;;;;;;6.17;5.53;;;0.30;99.90;;;;;;5005618;28;20042;-80
2022/11/20 05:39:59;;;;;;;6.00;4.23;;;0.30;99.90;;;;;;5005769;28;20111;-77
2022/11/20 05:42:30;;;;;;;6.73;4.83;;;0.20;99.90;;;;;;5004782;28;20048;-76
2022/11/20 05:44:57;;;;;;;5.00;3.27;;;0.20;99.90;;;;;;5003970;28;20054;-77
2022/11/20 05:47:22;;;;;;;10.10;5.60;;;0.20;99.90;;;;;;5003876;28;20527;-77
2022/11/20 05:49:48;;;;;;;8.53;6.77;;;0.20;99.90;;;;;;5005691;28;20129;-78
2022/11/20 05:52:13;;;;;;;6.87;5.63;;;0.20;99.90;;;;;;5004438;28;20440;-76
2022/11/20 05:54:39;;;;;;;10.17;6.80;;;0.20;99.90;;;;;;5005617;28;20046;-82
2022/11/20 05:57:05;;;;;;;7.33;6.00;;;0.20;99.90;;;;;;5005225;28;20046;-82
2022/11/20 05:59:30;;;;;;;9.13;4.70;;;0.10;99.90;;;;;;5005315;28;20061;-82
2022/11/20 06:01:56;;;;;;;7.07;6.20;;;0.10;99.90;;;;;;5004427;28;20081;-76
2022/11/20 06:04:21;;;;;;;8.57;5.03;;;0.20;99.90;;;;;;5005004;28;20042;-76
2022/11/20 06:06:47;;;;;;;11.93;6.17;;;0.20;99.90;;;;;;5006107;28;20073;-77
2022/11/20 06:09:12;;;;;;;8.33;5.03;;;0.30;99.90;;;;;;5004877;28;20088;-80
2022/11/20 06:11:38;;;;;;;8.83;6.43;;;0.30;99.90;;;;;;5004072;28;20555;-82
2022/11/20 06:14:04;;;;;;;6.97;6.27;;;0.30;99.90;;;;;;5004317;28;20112;-82
2022/11/20 06:16:29;;;;;;;8.10;5.80;;;0.30;99.90;;;;;;5002411;28;20412;-83
2022/11/20 06:18:55;;;;;;;5.83;4.97;;;0.30;99.90;;;;;;5005000;28;20085;-78
2022/11/20 06:21:22;;;;;;;4.90;3.93;;;0.20;99.90;;;;;;5003807;28;20049;-76
2022/11/20 06:23:49;;;;;;;4.20;3.67;;;0.20;99.90;;;;;;5005183;28;20045;-76
2022/11/20 06:26:18;;;;;;;6.13;5.30;;;0.20;99.90;;;;;;5005456;28;20042;-78
2022/11/20 06:28:43;;;;;;;11.33;5.53;;;0.20;99.90;;;;;;5003728;28;20053;-75
2022/11/20 06:31:12;;;;;;;5.07;4.20;;;0.20;99.90;;;;;;5004219;28;20041;-79
2022/11/20 06:33:37;;;;;;;8.77;5.33;;;0.20;99.90;;;;;;5005116;28;20042;-80
2022/11/20 06:36:04;;;;;;;7.67;6.23;;;0.10;99.90;;;;;;5003213;28;20049;-73
2022/11/20 06:38:30;;;;;;;7.70;4.50;;;0.10;99.90;;;;;;5003343;28;20081;-83
2022/11/20 06:40:56;;;;;;;4.17;3.63;;;0.10;99.90;;;;;;5004512;28;20117;-82
2022/11/20 06:43:22;;;;;;;8.30;5.33;;;0.10;99.90;;;;;;5003654;28;20514;-84
2022/11/20 06:45:58;;;;;;;6.23;5.40;;;0.00;99.90;;;;;;5003001;28;20079;-81
2022/11/20 06:48:25;;;;;;;6.57;4.33;;;0.00;99.90;;;;;;5004671;28;20042;-83
2022/11/20 06:50:51;;;;;;;6.97;4.93;;;0.00;99.90;;;;;;5003050;28;20093;-82
2022/11/20 06:53:17;;;;;;;4.47;4.07;;;0.00;99.90;;;;;;5004579;28;20081;-82
2022/11/20 06:55:44;;;;;;;5.70;5.20;;;0.00;99.90;;;;;;5004211;28;20049;-81
2022/11/20 06:58:10;;;;;;;6.83;4.30;;;-0.10;99.90;;;;;;5003053;28;20050;-82
2022/11/20 07:00:36;;;;;;;6.97;6.33;;;-0.10;99.90;;;;;;5003109;28;20048;-83
2022/11/20 07:03:05;;;;;;;11.27;6.63;;;-0.10;99.90;;;;;;5004140;28;20038;-76
2022/11/20 07:05:31;;;;;;;11.27;7.60;;;-0.10;99.90;;;;;;5003556;28;20041;-77
2022/11/20 07:07:57;;;;;;;9.10;5.07;;;-0.10;99.90;;;;;;5002983;28;20118;-78
2022/11/20 07:10:23;;;;;;;9.27;5.33;;;-0.10;99.90;;;;;;5004521;28;20053;-78
2022/11/20 07:12:52;;;;;;;11.27;6.13;;;-0.10;99.90;;;;;;5003638;28;20556;-74
2022/11/20 07:15:19;;;;;;;10.63;6.47;;;-0.10;99.90;;;;;;5002546;28;20424;-76
2022/11/20 07:17:45;;;;;;;8.77;5.27;;;-0.10;99.90;;;;;;5003508;28;20034;-78
2022/11/20 07:20:11;;;;;;;9.23;6.97;;;-0.10;99.90;;;;;;5002328;28;20553;-83
2022/11/20 07:22:37;;;;;;;10.57;6.20;;;-0.10;99.90;;;;;;5004320;28;20412;-81
2022/11/20 07:25:03;;;;;;;7.47;6.27;;;-0.10;99.90;;;;;;5003105;28;20037;-82
2022/11/20 07:27:29;;;;;;;6.77;6.13;;;-0.10;99.90;;;;;;4984454;28;20291;-76
2022/11/20 07:29:55;;;;;;;10.77;5.90;;;-0.10;99.90;;;;;;4986420;28;20121;-81
2022/11/20 07:32:21;;;;;;;7.83;5.57;;;-0.10;99.90;;;;;;5003798;28;20177;-77
2022/11/20 07:34:47;;;;;;;9.03;6.30;;;0.00;99.90;;;;;;5004383;28;20137;-75
2022/11/20 07:37:13;;;;;;;9.20;6.50;;;0.00;99.90;;;;;;5004070;28;20049;-73
2022/11/20 07:39:38;;;;;;;10.27;5.60;;;0.10;99.90;;;;;;5003989;28;20050;-81
2022/11/20 07:42:05;;;;;;;12.17;7.60;;;0.10;99.90;;;;;;5003588;28;20519;-82
2022/11/20 07:44:31;;;;;;;10.07;8.30;;;0.10;99.90;;;;;;5002258;28;20050;-80
2022/11/20 07:46:56;;;;;;;7.37;5.57;;;0.20;99.90;;;;;;5002424;28;20050;-83
2022/11/20 07:49:22;;;;;;;12.83;7.47;;;0.20;99.90;;;;;;5002448;28;20148;-82
2022/11/20 07:51:50;;;;;;;11.90;6.17;;;0.20;99.90;;;;;;5003859;28;20034;-79
2022/11/20 07:54:16;;;;;;;10.90;7.27;;;0.20;99.90;;;;;;5004155;28;20077;-78
2022/11/20 07:56:41;;;;;;;8.50;6.20;;;0.30;99.90;;;;;;5003477;28;20088;-76
2022/11/20 07:59:07;;;;;;;9.43;6.40;;;0.30;99.90;;;;;;5003379;28;20104;-79
2022/11/20 08:01:32;;;;;;;10.93;7.33;;;0.30;99.90;;;;;;5011327;28;20092;-79
2022/11/20 08:03:58;;;;;;;6.77;6.00;;;0.30;99.90;;;;;;5005489;28;20385;-81
2022/11/20 08:06:24;;;;;;;8.07;6.37;;;0.30;99.90;;;;;;5003779;28;20464;-82
2022/11/20 08:08:50;;;;;;;14.20;8.30;;;0.30;99.90;;;;;;5005702;28;20046;-82
2022/11/20 08:14:12;;;;;;;7.97;5.50;;;0.30;99.90;;;;;;5001957;28;20575;-79
2022/11/20 08:16:49;;;;;;;11.50;7.10;;;0.30;99.90;;;;;;5031367;28;20124;-77
2022/11/20 08:19:17;;;;;;;10.40;6.07;;;0.30;99.90;;;;;;4995500;28;20069;-78
2022/11/20 08:21:43;;;;;;;8.73;6.63;;;0.30;99.90;;;;;;4984687;28;20044;-83
2022/11/20 08:24:10;;;;;;;11.33;7.33;;;0.30;99.90;;;;;;4998956;28;20054;-73
2022/11/20 08:26:37;;;;;;;7.27;5.93;;;0.30;99.90;;;;;;5002145;28;20951;-81
2022/11/20 08:29:04;;;;;;;8.53;6.50;;;0.40;99.90;;;;;;5001872;28;20081;-79
2022/11/20 08:31:30;;;;;;;9.10;6.60;;;0.50;99.90;;;;;;5002974;28;20100;-80
2022/11/20 08:33:56;;;;;;;12.00;7.27;;;0.50;99.90;;;;;;5003642;28;20042;-77
2022/11/20 08:36:24;;;;;;;8.33;6.33;;;0.50;99.90;;;;;;5003399;28;20044;-82
2022/11/20 08:38:52;;;;;;;14.10;5.77;;;0.50;99.90;;;;;;5004967;28;20131;-82
2022/11/20 08:41:24;;;;;;;6.27;5.50;;;0.60;99.90;;;;;;5005731;28;20038;-82
2022/11/20 08:43:50;;;;;;;10.18;5.88;;;0.60;99.90;;;;;;5004875;28;20077;-77
2022/11/20 08:46:17;;;;;;;9.93;7.83;;;0.60;99.90;;;;;;5004592;28;20045;-77
2022/11/20 08:48:45;;;;;;;15.70;8.47;;;0.70;99.90;;;;;;5032652;28;20492;-79
2022/11/20 08:51:11;;;;;;;9.77;6.93;;;0.70;99.90;;;;;;5005911;28;20042;-78
2022/11/20 08:53:38;;;;;;;8.03;7.03;;;0.70;99.90;;;;;;5001339;28;20034;-85
2022/11/20 08:56:07;;;;;;;15.60;6.40;;;0.70;99.90;;;;;;4988730;28;20420;-80
2022/11/20 08:58:37;;;;;;;7.23;6.13;;;0.80;99.90;;;;;;5007356;28;20096;-79
2022/11/20 09:01:03;;;;;;;10.40;7.10;;;0.80;99.90;;;;;;5007450;28;20050;-79
2022/11/20 09:03:28;;;;;;;17.53;7.50;;;0.80;99.90;;;;;;4985967;28;20111;-78
2022/11/20 09:06:03;;;;;;;11.33;6.57;;;0.80;99.90;;;;;;5006603;28;20431;-80
2022/11/20 09:08:29;;;;;;;13.07;7.63;;;0.90;99.90;;;;;;5006135;28;20061;-77
2022/11/20 09:10:56;;;;;;;7.90;5.77;;;0.90;99.90;;;;;;5005164;28;20081;-79
2022/11/20 09:13:22;;;;;;;11.43;6.97;;;0.90;99.90;;;;;;5003575;28;20496;-79
2022/11/20 09:15:54;;;;;;;14.10;8.23;;;1.00;99.90;;;;;;5004710;28;20037;-83
2022/11/20 09:18:20;;;;;;;10.20;6.70;;;1.00;99.90;;;;;;5006595;28;20042;-76
2022/11/20 09:20:46;;;;;;;11.50;7.83;;;1.10;99.90;;;;;;4989148;28;20464;-81
2022/11/20 09:23:11;;;;;;;9.23;6.40;;;1.10;99.90;;;;;;5005309;28;20077;-83
2022/11/20 09:25:37;;;;;;;10.87;7.47;;;1.20;99.90;;;;;;5002244;28;20416;-85
2022/11/20 09:28:03;;;;;;;14.07;8.30;;;1.20;99.90;;;;;;5000512;28;20083;-87
2022/11/20 09:30:28;;;;;;;10.47;7.63;;;1.30;99.90;;;;;;5003565;28;20041;-82
2022/11/20 09:32:54;;;;;;;9.73;6.73;;;1.30;99.90;;;;;;5004220;28;20074;-86
2022/11/20 09:35:19;;;;;;;13.53;6.93;;;1.30;99.90;;;;;;5003153;28;20092;-80
2022/11/20 09:37:45;;;;;;;9.03;6.60;;;1.40;99.90;;;;;;5030722;28;20042;-82
2022/11/20 09:40:40;;;;;;;10.93;7.77;;;1.50;99.90;;;;;;5005139;28;20042;-82
2022/11/20 09:43:28;;;;;;;9.30;6.67;;;1.50;99.90;;;;;;5001294;28;20526;-79
2022/11/20 09:46:04;;;;;;;10.70;7.73;;;1.60;99.90;;;;;;5002277;28;20050;-84
2022/11/20 09:48:42;;;;;;;8.90;6.63;;;1.60;99.90;;;;;;5005708;28;20045;-80
2022/11/20 09:51:27;;;;;;;9.63;7.10;;;1.60;99.90;;;;;;5034307;28;20057;-74
2022/11/20 09:54:10;;;;;;;15.53;9.27;;;1.70;99.90;;;;;;5022789;28;20655;-86
2022/11/20 09:56:41;;;;;;;8.63;7.63;;;1.80;99.90;;;;;;5012117;28;20046;-79
2022/11/20 09:59:14;;;;;;;8.70;6.27;;;1.80;99.90;;;;;;5003611;28;20088;-80
2022/11/20 10:01:40;;;;;;;10.77;7.87;;;1.90;99.90;;;;;;5004015;28;20049;-81
2022/11/20 10:04:20;;;;;;;9.37;6.20;;;1.90;99.90;;;;;;5004433;28;20041;-84
2022/11/20 10:07:04;;;;;;;10.30;8.93;;;2.00;99.90;;;;;;5006027;28;20052;-83
2022/11/20 10:09:39;;;;;;;8.43;7.23;;;2.00;99.90;;;;;;5002253;28;20187;-88
2022/11/20 10:12:35;;;;;;;12.97;6.97;;;2.00;99.90;;;;;;5004719;28;20492;-86
2022/11/20 10:15:04;;;;;;;9.20;6.67;;;2.10;99.90;;;;;;5003621;28;20456;-89
2022/11/20 10:18:01;;;;;;;12.03;7.30;;;2.10;99.90;;;;;;4999566;28;20077;-84
2022/11/20 10:20:51;;;;;;;9.30;6.90;;;2.20;99.90;;;;;;5017786;28;20045;-90
2022/11/20 10:23:47;;;;;;;10.50;6.20;;;2.30;99.90;;;;;;5002093;28;20042;-88
2022/11/20 10:26:35;;;;;;;9.07;6.80;;;2.30;99.90;;;;;;4978602;28;20050;-89
2022/11/20 10:29:10;;;;;;;14.53;6.17;;;2.30;99.90;;;;;;5004699;28;20092;-88
2022/11/20 10:31:42;;;;;;;13.17;5.37;;;2.40;99.90;;;;;;5002237;28;20076;-78
2022/11/20 10:34:35;;;;;;;12.60;7.20;;;2.40;99.90;;;;;;5001563;28;20108;-85
2022/11/20 10:37:22;;;;;;;13.23;8.20;;;2.40;99.90;;;;;;5003882;28;20092;-87
2022/11/20 10:39:58;;;;;;;8.87;7.83;;;2.40;99.90;;;;;;5005537;28;20060;-74
2022/11/20 10:42:36;;;;;;;8.70;6.53;;;2.50;99.90;;;;;;5004350;28;20037;-74
2022/11/20 10:45:26;;;;;;;9.27;6.07;;;2.60;99.90;;;;;;4994560;28;20132;-77
2022/11/20 10:47:56;;;;;;;7.17;4.63;;;2.60;99.90;;;;;;5003841;28;20050;-79
2022/11/20 10:50:23;;;;;;;11.53;6.70;;;2.70;99.90;;;;;;5004482;28;20050;-86
2022/11/20 10:53:09;;;;;;;7.43;5.77;;;2.70;99.90;;;;;;4999785;28;20044;-76
2022/11/20 10:55:45;;;;;;;12.13;7.67;;;2.80;99.90;;;;;;5002690;28;20046;-89
2022/11/20 10:58:16;;;;;;;7.10;5.10;;;2.90;99.90;;;;;;5002959;28;20511;-80
2022/11/20 11:00:42;;;;;;;10.70;6.82;;;2.80;99.90;;;;;;4997965;28;20034;-79
2022/11/20 11:03:27;;;;;;;6.53;4.33;;;2.90;99.90;;;;;;5003668;28;20045;-79
2022/11/20 11:06:19;;;;;;;6.67;5.03;;;2.90;99.90;;;;;;4988143;28;20038;-82
2022/11/20 11:08:47;;;;;;;7.78;5.25;;;2.90;99.90;;;;;;4997963;28;20046;-88
2022/11/20 11:11:33;;;;;;;7.03;5.43;;;2.90;99.90;;;;;;5002641;28;20088;-84
2022/11/20 11:14:09;;;;;;;7.70;5.83;;;2.80;99.90;;;;;;4985424;28;20057;-87
2022/11/20 11:16:35;;;;;;;7.83;5.30;;;2.90;99.90;;;;;;4986739;28;20128;-80
2022/11/20 11:19:19;;;;;;;7.37;4.27;;;2.90;99.90;;;;;;5003429;28;20492;-80
2022/11/20 11:21:56;;;;;;;4.50;3.40;;;2.90;99.90;;;;;;5008175;28;20056;-82
2022/11/20 11:24:23;;;;;;;4.17;3.73;;;2.90;99.90;;;;;;5007189;28;20041;-94
2022/11/20 11:27:05;;;;;;;4.03;3.27;;;2.90;99.90;;;;;;4995960;28;20120;-82
2022/11/20 11:29:31;;;;;;;5.25;3.67;;;3.00;99.90;;;;;;5001200;28;20048;-78
2022/11/20 11:32:10;;;;;;;4.20;3.00;;;3.00;99.90;;;;;;5008889;28;20037;-81
2022/11/20 11:34:36;;;;;;;4.90;4.50;;;3.00;99.90;;;;;;5003966;28;20120;-82
2022/11/20 11:37:05;;;;;;;5.30;3.80;;;3.00;99.90;;;;;;5002443;28;20120;-83
2022/11/20 11:39:32;;;;;;;4.70;2.77;;;3.00;99.90;;;;;;4982952;28;20050;-76
2022/11/20 11:42:00;;;;;;;6.00;2.87;;;3.10;99.90;;;;;;5030712;28;20057;-75
2022/11/20 11:47:19;;;;;;;5.53;4.00;;;3.10;99.90;;;;;;5002550;28;20053;-78
2022/11/20 11:49:45;;;;;;;4.70;3.93;;;3.20;99.90;;;;;;4985160;28;20046;-78
2022/11/20 11:52:21;;;;;;;4.27;3.57;;;3.20;99.90;;;;;;5003094;28;20030;-78
2022/11/20 11:54:53;;;;;;;5.37;4.43;;;3.30;99.90;;;;;;5003945;28;20107;-77
2022/11/20 11:57:28;;;;;;;;;;;3.30;99.90;;;;;;5002425;28;20096;-80
2022/11/20 12:00:11;;;;;;;5.70;4.13;;;3.30;99.90;;;;;;5034157;28;19921;-76
2022/11/20 12:02:49;;;;;;;6.07;3.37;;;3.30;99.90;;;;;;5002409;28;20050;-75
2022/11/20 12:05:46;;;;;;;5.78;3.15;;;3.40;99.90;;;;;;5002547;28;20130;-75
2022/11/20 12:08:24;;;;;;;4.10;3.60;;;3.30;99.90;;;;;;5001014;28;20543;-75
2022/11/20 12:10:59;;;;;;;6.95;4.85;;;3.30;99.90;;;;;;5003147;28;20046;-75
2022/11/20 12:13:30;;;;;;;6.50;3.83;;;3.30;99.90;;;;;;5004693;28;20050;-76
2022/11/20 12:15:56;;;;;;;11.27;5.13;;;3.30;99.90;;;;;;5006352;28;20112;-76
2022/11/20 12:18:22;;;;;;;4.68;3.45;;;3.30;99.90;;;;;;5006101;28;20042;-77
2022/11/20 12:21:06;;;;;;;5.70;4.00;;;3.30;99.90;;;;;;5005853;28;20049;-75
2022/11/20 12:23:41;;;;;;;7.83;4.30;;;3.40;99.90;;;;;;5007258;28;20507;-75
2022/11/20 12:26:45;;;;;;;6.00;4.63;;;3.30;99.90;;;;;;4998293;28;20046;-75
2022/11/20 12:29:30;;;;;;;4.25;3.85;;;3.40;99.90;;;;;;4978655;28;20062;-74
2022/11/20 12:32:14;;;;;;;5.72;4.55;;;3.40;99.90;;;;;;4985880;28;20584;-74
2022/11/20 12:34:50;;;;;;;5.40;4.85;;;3.30;99.90;;;;;;4986695;28;20589;-74
2022/11/20 12:37:25;;;;;;;4.25;3.78;;;3.40;99.90;;;;;;4987055;28;20046;-75
2022/11/20 12:39:55;;;;;;;6.97;3.30;;;3.30;99.90;;;;;;4994964;28;20056;-75
2022/11/20 12:45:31;;;;;;;5.28;3.03;;;3.30;99.90;;;;;;4993892;28;20057;-75
2022/11/20 12:48:09;;;;;;;4.80;4.20;;;3.30;99.90;;;;;;5005525;28;20092;-76
2022/11/20 12:51:08;;;;;;;4.78;3.88;;;3.30;99.90;;;;;;4996735;28;20129;-74
2022/11/20 12:53:52;;;;;;;4.90;3.55;;;3.30;99.90;;;;;;4987779;28;20111;-74
2022/11/20 12:56:27;;;;;;;7.45;3.88;;;3.30;99.90;;;;;;5012142;28;20057;-74
2022/11/20 12:59:04;;;;;;;3.50;3.22;;;3.30;99.90;;;;;;4987455;28;20141;-76
2022/11/20 13:02:00;;;;;;;4.72;3.65;;;3.30;99.90;;;;;;5005155;28;20053;-75
2022/11/20 13:04:32;;;;;;;4.82;3.67;;;3.40;99.90;;;;;;5006280;28;20443;-75
2022/11/20 13:06:59;;;;;;;3.78;3.05;;;3.40;99.90;;;;;;5005075;28;20400;-74
2022/11/20 13:09:26;;;;;;;6.35;3.55;;;3.40;99.90;;;;;;5004841;28;20045;-76
2022/11/20 13:12:16;;;;;;;6.93;3.90;;;3.40;99.90;;;;;;5004908;28;20050;-75
2022/11/20 13:14:50;;;;;;;7.40;5.15;;;3.40;99.90;;;;;;5004957;28;20037;-75
2022/11/20 13:17:32;;;;;;;4.93;3.90;;;3.40;99.90;;;;;;5006603;28;20049;-79
2022/11/20 13:19:58;;;;;;;6.50;3.80;;;3.40;99.90;;;;;;5004559;28;20104;-79
2022/11/20 13:22:29;;;;;;;5.93;2.65;;;3.40;99.90;;;;;;5004380;28;20078;-76